sensor_id;sensor_type;location;lat;lon;timestamp;temperature;humidity
13320;DHT22;59599;47.608;12.190;2022-11-15T05:00:16;4.50;99.90
13320;DHT22;59599;47.608;12.190;2022-11-15T05:02:43;4.30;99.90
13320;DHT22;59599;47.608;12.190;2022-11-15T05:05:27;4.00;99.90
13320;DHT22;59599;47.608;12.190;2022-11-15T05:07:52;3.90;99.90
13320;DHT22;59599;47.608;12.190;2022-11-15T05:12:44;3.90;99.90
13320;DHT22;59599;47.608;12.190;2022-11-15T05:15:09;4.00;99.90
13320;DHT22;59599;47.608;12.190;2022-11-15T05:17:35;3.90;99.90
13320;DHT22;59599;47.608;12.190;2022-11-15T05:20:00;4.00;99.90
13320;DHT22;59599;47.608;12.190;2022-11-15T05:22:27;4.00;99.90
13320;DHT22;59599;47.608;12.190;2022-11-15T05:24:52;3.90;99.90
13320;DHT22;59599;47.608;12.190;2022-11-15T05:27:18;4.00;99.90
13320;DHT22;59599;47.608;12.190;2022-11-15T05:29:43;4.10;99.90
13320;DHT22;59599;47.608;12.190;2022-11-15T05:32:09;4.10;99.90
13320;DHT22;59599;47.608;12.190;2022-11-15T05:34:36;4.20;99.90
13320;DHT22;59599;47.608;12.190;2022-11-15T05:37:03;4.30;99.90
13320;DHT22;59599;47.608;12.190;2022-11-15T05:39:28;4.30;99.90
13320;DHT22;59599;47.608;12.190;2022-11-15T05:41:59;4.50;99.90
13320;DHT22;59599;47.608;12.190;2022-11-15T05:44:27;4.50;99.90
13320;DHT22;59599;47.608;12.190;2022-11-15T05:46:53;4.60;99.90
13320;DHT22;59599;47.608;12.190;2022-11-15T05:49:23;4.50;99.90
13320;DHT22;59599;47.608;12.190;2022-11-15T05:51:50;4.40;99.90
13320;DHT22;59599;47.608;12.190;2022-11-15T05:54:16;4.50;99.90
13320;DHT22;59599;47.608;12.190;2022-11-15T05:56:42;4.60;99.90
13320;DHT22;59599;47.608;12.190;2022-11-15T05:59:09;4.50;99.90
13320;DHT22;59599;47.608;12.190;2022-11-15T06:01:36;4.50;99.90
13320;DHT22;59599;47.608;12.190;2022-11-15T06:04:02;4.60;99.90
13320;DHT22;59599;47.608;12.190;2022-11-15T06:06:28;4.70;99.90
13320;DHT22;59599;47.608;12.190;2022-11-15T06:08:54;4.60;99.90
13320;DHT22;59599;47.608;12.190;2022-11-15T06:11:19;4.60;99.90
13320;DHT22;59599;47.608;12.190;2022-11-15T06:13:45;4.70;99.90
13320;DHT22;59599;47.608;12.190;2022-11-15T06:16:10;4.50;99.90
13320;DHT22;59599;47.608;12.190;2022-11-15T06:18:36;4.70;99.90
13320;DHT22;59599;47.608;12.190;2022-11-15T06:21:02;4.70;99.90
13320;DHT22;59599;47.608;12.190;2022-11-15T06:23:31;4.80;99.90
13320;DHT22;59599;47.608;12.190;2022-11-15T06:25:58;4.70;99.90
13320;DHT22;59599;47.608;12.190;2022-11-15T06:28:24;4.60;99.90
13320;DHT22;59599;47.608;12.190;2022-11-15T06:30:50;4.50;99.90
13320;DHT22;59599;47.608;12.190;2022-11-15T06:33:15;4.50;99.90
13320;DHT22;59599;47.608;12.190;2022-11-15T06:35:41;4.30;99.90
13320;DHT22;59599;47.608;12.190;2022-11-15T06:38:10;4.30;99.90
13320;DHT22;59599;47.608;12.190;2022-11-15T06:40:37;4.30;99.90
13320;DHT22;59599;47.608;12.190;2022-11-15T06:43:04;4.30;99.90
13320;DHT22;59599;47.608;12.190;2022-11-15T06:47:55;4.40;99.90
13320;DHT22;59599;47.608;12.190;2022-11-15T06:50:21;4.40;99.90
13320;DHT22;59599;47.608;12.190;2022-11-15T06:55:13;4.30;99.90
13320;DHT22;59599;47.608;12.190;2022-11-15T06:57:49;4.10;99.90
13320;DHT22;59599;47.608;12.190;2022-11-15T07:00:17;4.10;99.90
13320;DHT22;59599;47.608;12.190;2022-11-15T07:02:43;4.10;99.90
13320;DHT22;59599;47.608;12.190;2022-11-15T07:05:09;4.30;99.90
13320;DHT22;59599;47.608;12.190;2022-11-15T07:07:34;4.40;99.90
13320;DHT22;59599;47.608;12.190;2022-11-15T07:10:00;4.40;99.90
13320;DHT22;59599;47.608;12.190;2022-11-15T07:12:25;4.40;99.90
13320;DHT22;59599;47.608;12.190;2022-11-15T07:14:51;4.40;99.90
13320;DHT22;59599;47.608;12.190;2022-11-15T07:17:16;4.40;99.90
13320;DHT22;59599;47.608;12.190;2022-11-15T07:19:42;4.40;99.90
13320;DHT22;59599;47.608;12.190;2022-11-15T07:22:08;4.40;99.90
13320;DHT22;59599;47.608;12.190;2022-11-15T07:24:33;4.30;99.90
13320;DHT22;59599;47.608;12.190;2022-11-15T07:26:59;4.20;99.90
13320;DHT22;59599;47.608;12.190;2022-11-15T07:29:24;4.20;99.90
13320;DHT22;59599;47.608;12.190;2022-11-15T07:34:16;4.30;99.90
13320;DHT22;59599;47.608;12.190;2022-11-15T07:36:42;4.20;99.90
13320;DHT22;59599;47.608;12.190;2022-11-15T07:39:09;4.20;99.90
13320;DHT22;59599;47.608;12.190;2022-11-15T07:41:35;4.20;99.90
13320;DHT22;59599;47.608;12.190;2022-11-15T07:46:26;4.60;99.90
13320;DHT22;59599;47.608;12.190;2022-11-15T07:48:52;4.80;99.90
13320;DHT22;59599;47.608;12.190;2022-11-15T07:51:18;4.90;99.90
13320;DHT22;59599;47.608;12.190;2022-11-15T07:53:44;4.90;99.90
13320;DHT22;59599;47.608;12.190;2022-11-15T07:56:10;4.90;99.90
13320;DHT22;59599;47.608;12.190;2022-11-15T07:58:36;5.00;99.90
13320;DHT22;59599;47.608;12.190;2022-11-15T08:01:06;4.80;99.90
13320;DHT22;59599;47.608;12.190;2022-11-15T08:03:32;4.80;99.90
13320;DHT22;59599;47.608;12.190;2022-11-15T08:05:58;4.80;99.90
13320;DHT22;59599;47.608;12.190;2022-11-15T08:08:23;5.00;99.90
13320;DHT22;59599;47.608;12.190;2022-11-15T08:15:41;5.20;99.90
13320;DHT22;59599;47.608;12.190;2022-11-15T08:18:15;5.30;99.90
13320;DHT22;59599;47.608;12.190;2022-11-15T08:20:41;5.30;99.90
13320;DHT22;59599;47.608;12.190;2022-11-15T08:23:09;5.30;99.90
13320;DHT22;59599;47.608;12.190;2022-11-15T08:25:35;5.20;99.90
13320;DHT22;59599;47.608;12.190;2022-11-15T08:28:04;5.20;99.90
13320;DHT22;59599;47.608;12.190;2022-11-15T08:30:30;5.30;99.90
13320;DHT22;59599;47.608;12.190;2022-11-15T08:32:59;5.50;99.90
13320;DHT22;59599;47.608;12.190;2022-11-15T08:35:25;5.70;99.90
13320;DHT22;59599;47.608;12.190;2022-11-15T08:37:52;5.90;99.90
13320;DHT22;59599;47.608;12.190;2022-11-15T08:40:18;6.00;99.90
13320;DHT22;59599;47.608;12.190;2022-11-15T08:42:46;6.40;99.90
13320;DHT22;59599;47.608;12.190;2022-11-15T08:45:12;6.50;99.90
13320;DHT22;59599;47.608;12.190;2022-11-15T08:47:37;6.60;99.90
13320;DHT22;59599;47.608;12.190;2022-11-15T08:50:03;6.80;99.90
13320;DHT22;59599;47.608;12.190;2022-11-15T08:52:29;6.90;99.90
13320;DHT22;59599;47.608;12.190;2022-11-15T08:54:54;7.00;99.90
13320;DHT22;59599;47.608;12.190;2022-11-15T08:57:20;7.10;99.90
13320;DHT22;59599;47.608;12.190;2022-11-15T08:59:46;7.10;99.90
13320;DHT22;59599;47.608;12.190;2022-11-15T09:02:13;7.20;99.90
13320;DHT22;59599;47.608;12.190;2022-11-15T09:04:43;7.30;99.90
13320;DHT22;59599;47.608;12.190;2022-11-15T09:07:11;7.50;99.90
13320;DHT22;59599;47.608;12.190;2022-11-15T09:09:37;7.60;99.90
13320;DHT22;59599;47.608;12.190;2022-11-15T09:12:03;7.80;99.90
13320;DHT22;59599;47.608;12.190;2022-11-15T09:14:29;7.90;99.90
13320;DHT22;59599;47.608;12.190;2022-11-15T09:16:55;7.90;99.90
13320;DHT22;59599;47.608;12.190;2022-11-15T09:19:21;8.10;99.90
13320;DHT22;59599;47.608;12.190;2022-11-15T09:21:46;8.30;99.90
13320;DHT22;59599;47.608;12.190;2022-11-15T09:24:12;8.40;99.90
13320;DHT22;59599;47.608;12.190;2022-11-15T09:26:38;8.60;99.90
13320;DHT22;59599;47.608;12.190;2022-11-15T09:29:03;8.70;99.90
13320;DHT22;59599;47.608;12.190;2022-11-15T09:31:29;8.70;99.90
13320;DHT22;59599;47.608;12.190;2022-11-15T09:33:55;8.80;99.90
13320;DHT22;59599;47.608;12.190;2022-11-15T09:36:20;8.90;99.90
13320;DHT22;59599;47.608;12.190;2022-11-15T09:38:46;9.00;99.90
13320;DHT22;59599;47.608;12.190;2022-11-15T09:46:47;9.60;99.90
13320;DHT22;59599;47.608;12.190;2022-11-15T09:49:17;9.50;99.90
13320;DHT22;59599;47.608;12.190;2022-11-15T09:51:49;9.60;99.90
13320;DHT22;59599;47.608;12.190;2022-11-15T09:54:23;9.60;99.90
13320;DHT22;59599;47.608;12.190;2022-11-15T09:56:52;9.50;99.90
13320;DHT22;59599;47.608;12.190;2022-11-15T09:59:48;9.60;99.90
13320;DHT22;59599;47.608;12.190;2022-11-15T10:05:21;9.70;99.90
13320;DHT22;59599;47.608;12.190;2022-11-15T10:10:49;10.00;99.90
13320;DHT22;59599;47.608;12.190;2022-11-15T10:13:22;10.20;99.90
13320;DHT22;59599;47.608;12.190;2022-11-15T10:15:48;10.30;99.90
13320;DHT22;59599;47.608;12.190;2022-11-15T10:21:15;10.50;99.90
13320;DHT22;59599;47.608;12.190;2022-11-15T10:23:42;10.50;99.90
13320;DHT22;59599;47.608;12.190;2022-11-15T10:26:13;10.50;99.90
13320;DHT22;59599;47.608;12.190;2022-11-15T10:28:40;10.80;99.90
13320;DHT22;59599;47.608;12.190;2022-11-15T10:33:48;11.00;99.90
13320;DHT22;59599;47.608;12.190;2022-11-15T10:36:16;11.10;99.90
13320;DHT22;59599;47.608;12.190;2022-11-15T10:41:36;11.50;99.90
13320;DHT22;59599;47.608;12.190;2022-11-15T10:46:33;11.70;99.90
13320;DHT22;59599;47.608;12.190;2022-11-15T10:49:22;14.80;99.90
13320;DHT22;59599;47.608;12.190;2022-11-15T10:52:12;12.00;99.90
13320;DHT22;59599;47.608;12.190;2022-11-15T10:57:27;12.30;99.90
13320;DHT22;59599;47.608;12.190;2022-11-15T11:00:27;12.40;99.90
13320;DHT22;59599;47.608;12.190;2022-11-15T11:05:37;12.50;99.90
13320;DHT22;59599;47.608;12.190;2022-11-15T11:10:55;12.70;99.90
13320;DHT22;59599;47.608;12.190;2022-11-15T11:16:01;12.90;99.90
13320;DHT22;59599;47.608;12.190;2022-11-15T11:21:22;13.20;99.90
13320;DHT22;59599;47.608;12.190;2022-11-15T11:24:04;13.40;99.90
13320;DHT22;59599;47.608;12.190;2022-11-15T11:29:57;13.60;99.90
13320;DHT22;59599;47.608;12.190;2022-11-15T11:32:49;13.70;99.90
13320;DHT22;59599;47.608;12.190;2022-11-15T11:36:18;13.90;99.90
13320;DHT22;59599;47.608;12.190;2022-11-15T11:41:07;14.30;99.90
13320;DHT22;59599;47.608;12.190;2022-11-15T11:44:32;14.50;99.90
13320;DHT22;59599;47.608;12.190;2022-11-15T11:46:35;14.70;99.90
13320;DHT22;59599;47.608;12.190;2022-11-15T12:05:40;15.40;99.90
13320;DHT22;59599;47.608;12.190;2022-11-15T12:11:35;15.80;99.90
13320;DHT22;59599;47.608;12.190;2022-11-15T12:14:05;15.80;99.90
13320;DHT22;59599;47.608;12.190;2022-11-15T12:16:42;15.90;99.90
13320;DHT22;59599;47.608;12.190;2022-11-15T12:19:08;16.20;99.90
13320;DHT22;59599;47.608;12.190;2022-11-15T12:22:04;16.50;99.90
13320;DHT22;59599;47.608;12.190;2022-11-15T12:24:46;16.80;99.90
13320;DHT22;59599;47.608;12.190;2022-11-15T12:27:18;17.00;99.90
13320;DHT22;59599;47.608;12.190;2022-11-15T12:29:52;17.30;99.90
13320;DHT22;59599;47.608;12.190;2022-11-15T12:32:29;17.50;99.90
13320;DHT22;59599;47.608;12.190;2022-11-15T12:34:56;17.70;99.90
13320;DHT22;59599;47.608;12.190;2022-11-15T12:37:47;17.90;99.90
13320;DHT22;59599;47.608;12.190;2022-11-15T12:40:30;18.10;99.90
13320;DHT22;59599;47.608;12.190;2022-11-15T12:45:43;18.30;99.90
13320;DHT22;59599;47.608;12.190;2022-11-15T12:51:01;18.70;99.90
13320;DHT22;59599;47.608;12.190;2022-11-15T12:53:32;19.20;99.90
13320;DHT22;59599;47.608;12.190;2022-11-15T12:58:46;19.50;99.90
13320;DHT22;59599;47.608;12.190;2022-11-15T13:06:51;19.70;99.90
13320;DHT22;59599;47.608;12.190;2022-11-15T13:12:11;20.20;99.90
13320;DHT22;59599;47.608;12.190;2022-11-15T13:14:40;20.10;99.90
13320;DHT22;59599;47.608;12.190;2022-11-15T13:19:42;20.20;99.90
13320;DHT22;59599;47.608;12.190;2022-11-15T13:22:11;20.50;99.90
13320;DHT22;59599;47.608;12.190;2022-11-15T13:24:56;20.70;99.90
13320;DHT22;59599;47.608;12.190;2022-11-15T13:27:21;20.90;99.90
13320;DHT22;59599;47.608;12.190;2022-11-15T13:29:47;21.00;99.90
13320;DHT22;59599;47.608;12.190;2022-11-15T13:32:14;21.40;99.90
13320;DHT22;59599;47.608;12.190;2022-11-15T13:34:45;21.40;99.90
13320;DHT22;59599;47.608;12.190;2022-11-15T13:39:47;21.80;99.10
13320;DHT22;59599;47.608;12.190;2022-11-15T13:42:19;22.30;97.40
13320;DHT22;59599;47.608;12.190;2022-11-15T13:44:59;23.00;96.30
13320;DHT22;59599;47.608;12.190;2022-11-15T13:47:27;23.40;94.70
13320;DHT22;59599;47.608;12.190;2022-11-15T13:49:53;23.60;94.30
13320;DHT22;59599;47.608;12.190;2022-11-15T13:52:19;24.00;93.40
13320;DHT22;59599;47.608;12.190;2022-11-15T13:54:59;24.50;92.80
13320;DHT22;59599;47.608;12.190;2022-11-15T13:57:44;24.80;91.00
13320;DHT22;59599;47.608;12.190;2022-11-15T14:02:55;25.40;88.50
13320;DHT22;59599;47.608;12.190;2022-11-15T14:05:24;26.00;86.10
13320;DHT22;59599;47.608;12.190;2022-11-15T14:07:58;26.50;84.70
13320;DHT22;59599;47.608;12.190;2022-11-15T14:10:35;26.80;82.40
13320;DHT22;59599;47.608;12.190;2022-11-15T14:13:03;27.10;79.70
13320;DHT22;59599;47.608;12.190;2022-11-15T14:15:34;27.20;77.90
13320;DHT22;59599;47.608;12.190;2022-11-15T14:18:01;27.80;75.50
13320;DHT22;59599;47.608;12.190;2022-11-15T14:20:34;27.60;73.90
13320;DHT22;59599;47.608;12.190;2022-11-15T14:23:02;26.60;73.70
13320;DHT22;59599;47.608;12.190;2022-11-15T14:25:30;24.90;76.70
13320;DHT22;59599;47.608;12.190;2022-11-15T14:28:12;23.20;80.80
13320;DHT22;59599;47.608;12.190;2022-11-15T14:30:42;21.70;84.20
13320;DHT22;59599;47.608;12.190;2022-11-15T14:35:50;19.40;91.00
13320;DHT22;59599;47.608;12.190;2022-11-15T14:38:16;18.80;92.50
13320;DHT22;59599;47.608;12.190;2022-11-15T14:40:42;18.00;93.50
13320;DHT22;59599;47.608;12.190;2022-11-15T14:43:12;17.40;94.70
13320;DHT22;59599;47.608;12.190;2022-11-15T14:45:38;16.90;96.30
13320;DHT22;59599;47.608;12.190;2022-11-15T14:48:04;16.50;97.30
13320;DHT22;59599;47.608;12.190;2022-11-15T14:50:30;15.90;99.00
13320;DHT22;59599;47.608;12.190;2022-11-15T14:52:56;15.60;99.60
13320;DHT22;59599;47.608;12.190;2022-11-15T14:55:27;15.10;99.90
13320;DHT22;59599;47.608;12.190;2022-11-15T14:57:57;14.80;99.90
13320;DHT22;59599;47.608;12.190;2022-11-15T15:00:23;14.80;99.90
13320;DHT22;59599;47.608;12.190;2022-11-15T15:02:51;14.50;99.90
13320;DHT22;59599;47.608;12.190;2022-11-15T15:05:21;14.30;99.90
13320;DHT22;59599;47.608;12.190;2022-11-15T15:07:47;14.10;99.90
13320;DHT22;59599;47.608;12.190;2022-11-15T15:10:15;13.80;99.90
13320;DHT22;59599;47.608;12.190;2022-11-15T15:12:41;13.70;99.90
13320;DHT22;59599;47.608;12.190;2022-11-15T15:15:12;13.50;99.90
13320;DHT22;59599;47.608;12.190;2022-11-15T15:17:38;13.30;99.90
13320;DHT22;59599;47.608;12.190;2022-11-15T15:20:04;13.20;99.90
13320;DHT22;59599;47.608;12.190;2022-11-15T15:22:30;13.20;99.90
13320;DHT22;59599;47.608;12.190;2022-11-15T15:24:55;13.00;99.90
13320;DHT22;59599;47.608;12.190;2022-11-15T15:27:21;13.00;99.90
13320;DHT22;59599;47.608;12.190;2022-11-15T15:29:46;12.90;99.90
13320;DHT22;59599;47.608;12.190;2022-11-15T15:32:12;12.80;99.90
13320;DHT22;59599;47.608;12.190;2022-11-15T15:34:38;12.60;99.90
13320;DHT22;59599;47.608;12.190;2022-11-15T15:37:24;12.50;99.90
13320;DHT22;59599;47.608;12.190;2022-11-15T15:39:55;12.40;99.90
13320;DHT22;59599;47.608;12.190;2022-11-15T15:42:22;12.40;99.90
13320;DHT22;59599;47.608;12.190;2022-11-15T15:44:48;12.30;99.90
13320;DHT22;59599;47.608;12.190;2022-11-15T15:47:17;12.30;99.90
13320;DHT22;59599;47.608;12.190;2022-11-15T15:49:43;12.20;99.90
13320;DHT22;59599;47.608;12.190;2022-11-15T15:52:08;12.10;99.90
13320;DHT22;59599;47.608;12.190;2022-11-15T15:54:34;12.00;99.90
13320;DHT22;59599;47.608;12.190;2022-11-15T15:56:59;12.00;99.90
13320;DHT22;59599;47.608;12.190;2022-11-15T15:59:25;11.90;99.90
13320;DHT22;59599;47.608;12.190;2022-11-15T16:01:51;11.80;99.90
13320;DHT22;59599;47.608;12.190;2022-11-15T16:04:16;11.70;99.90
13320;DHT22;59599;47.608;12.190;2022-11-15T16:06:43;11.60;99.90
13320;DHT22;59599;47.608;12.190;2022-11-15T16:09:14;11.50;99.90
13320;DHT22;59599;47.608;12.190;2022-11-15T16:11:40;11.30;99.90
13320;DHT22;59599;47.608;12.190;2022-11-15T16:14:07;11.20;99.90
13320;DHT22;59599;47.608;12.190;2022-11-15T16:16:34;11.20;99.90
13320;DHT22;59599;47.608;12.190;2022-11-15T16:18:59;11.20;99.90
13320;DHT22;59599;47.608;12.190;2022-11-15T16:21:26;11.10;99.90
13320;DHT22;59599;47.608;12.190;2022-11-15T16:23:52;11.20;99.90
13320;DHT22;59599;47.608;12.190;2022-11-15T16:26:25;11.10;99.90
13320;DHT22;59599;47.608;12.190;2022-11-15T16:28:52;11.00;99.90
13320;DHT22;59599;47.608;12.190;2022-11-15T16:31:17;11.00;99.90
13320;DHT22;59599;47.608;12.190;2022-11-15T16:33:45;10.90;99.90
13320;DHT22;59599;47.608;12.190;2022-11-15T16:36:22;10.80;99.90
13320;DHT22;59599;47.608;12.190;2022-11-15T16:38:49;10.70;99.90
13320;DHT22;59599;47.608;12.190;2022-11-15T16:41:15;10.60;99.90
13320;DHT22;59599;47.608;12.190;2022-11-15T16:43:47;10.60;99.90
13320;DHT22;59599;47.608;12.190;2022-11-15T16:46:24;10.50;99.90
13320;DHT22;59599;47.608;12.190;2022-11-15T16:48:50;10.40;99.90
13320;DHT22;59599;47.608;12.190;2022-11-15T16:51:16;10.30;99.90
13320;DHT22;59599;47.608;12.190;2022-11-15T16:53:42;10.20;99.90
13320;DHT22;59599;47.608;12.190;2022-11-15T16:56:18;10.00;99.90
13320;DHT22;59599;47.608;12.190;2022-11-15T16:58:45;10.00;99.90
13320;DHT22;59599;47.608;12.190;2022-11-15T17:01:21;10.00;99.90
13320;DHT22;59599;47.608;12.190;2022-11-15T17:03:47;9.90;99.90
13320;DHT22;59599;47.608;12.190;2022-11-15T17:06:13;9.70;99.90
13320;DHT22;59599;47.608;12.190;2022-11-15T17:08:39;9.70;99.90
13320;DHT22;59599;47.608;12.190;2022-11-15T17:11:06;9.70;99.90
13320;DHT22;59599;47.608;12.190;2022-11-15T17:13:32;9.60;99.90
13320;DHT22;59599;47.608;12.190;2022-11-15T17:16:09;9.50;99.90
13320;DHT22;59599;47.608;12.190;2022-11-15T17:18:36;9.50;99.90
13320;DHT22;59599;47.608;12.190;2022-11-15T17:21:13;9.40;99.90
13320;DHT22;59599;47.608;12.190;2022-11-15T17:23:39;9.40;99.90
13320;DHT22;59599;47.608;12.190;2022-11-15T17:26:05;9.30;99.90
13320;DHT22;59599;47.608;12.190;2022-11-15T17:28:31;9.20;99.90
13320;DHT22;59599;47.608;12.190;2022-11-15T17:30:57;9.30;99.90
13320;DHT22;59599;47.608;12.190;2022-11-15T17:33:23;9.30;99.90
13320;DHT22;59599;47.608;12.190;2022-11-15T17:35:56;9.40;99.90
13320;DHT22;59599;47.608;12.190;2022-11-15T17:38:22;9.40;99.90
13320;DHT22;59599;47.608;12.190;2022-11-15T17:40:47;9.20;99.90
13320;DHT22;59599;47.608;12.190;2022-11-15T17:43:13;9.10;99.90
13320;DHT22;59599;47.608;12.190;2022-11-15T17:45:42;9.10;99.90
13320;DHT22;59599;47.608;12.190;2022-11-15T17:48:07;9.10;99.90
13320;DHT22;59599;47.608;12.190;2022-11-15T17:50:34;7.10;99.90
13320;DHT22;59599;47.608;12.190;2022-11-15T17:53:00;9.20;99.90
13320;DHT22;59599;47.608;12.190;2022-11-15T17:55:25;9.30;99.90
13320;DHT22;59599;47.608;12.190;2022-11-15T17:57:51;9.20;99.90
13320;DHT22;59599;47.608;12.190;2022-11-15T18:00:17;9.20;99.90
13320;DHT22;59599;47.608;12.190;2022-11-15T18:02:45;9.20;99.90
13320;DHT22;59599;47.608;12.190;2022-11-15T18:05:10;9.10;99.90
13320;DHT22;59599;47.608;12.190;2022-11-15T18:07:36;9.10;99.90
13320;DHT22;59599;47.608;12.190;2022-11-15T18:10:01;9.00;99.90
13320;DHT22;59599;47.608;12.190;2022-11-15T18:12:27;8.90;99.90
13320;DHT22;59599;47.608;12.190;2022-11-15T18:14:53;8.80;99.90
13320;DHT22;59599;47.608;12.190;2022-11-15T18:17:18;8.80;99.90
13320;DHT22;59599;47.608;12.190;2022-11-15T18:19:44;8.80;99.90
13320;DHT22;59599;47.608;12.190;2022-11-15T18:22:09;8.70;99.90
13320;DHT22;59599;47.608;12.190;2022-11-15T18:24:35;8.70;99.90
13320;DHT22;59599;47.608;12.190;2022-11-15T18:27:04;8.70;99.90
13320;DHT22;59599;47.608;12.190;2022-11-15T18:29:30;8.80;99.90
13320;DHT22;59599;47.608;12.190;2022-11-15T18:31:57;8.60;99.90
13320;DHT22;59599;47.608;12.190;2022-11-15T18:34:27;8.60;99.90
13320;DHT22;59599;47.608;12.190;2022-11-15T18:36:56;8.50;99.90
13320;DHT22;59599;47.608;12.190;2022-11-15T18:39:21;8.60;99.90
13320;DHT22;59599;47.608;12.190;2022-11-15T18:41:47;8.60;99.90
13320;DHT22;59599;47.608;12.190;2022-11-15T18:44:14;8.60;99.90
13320;DHT22;59599;47.608;12.190;2022-11-15T18:46:39;8.70;99.90
13320;DHT22;59599;47.608;12.190;2022-11-15T18:49:09;8.80;99.90
13320;DHT22;59599;47.608;12.190;2022-11-15T18:51:35;8.70;99.90
13320;DHT22;59599;47.608;12.190;2022-11-15T18:54:07;8.70;99.90
13320;DHT22;59599;47.608;12.190;2022-11-15T18:56:32;8.80;99.90
13320;DHT22;59599;47.608;12.190;2022-11-15T18:58:59;8.90;99.90
13320;DHT22;59599;47.608;12.190;2022-11-15T19:01:31;8.80;99.90
13320;DHT22;59599;47.608;12.190;2022-11-15T19:04:11;8.80;99.90
13320;DHT22;59599;47.608;12.190;2022-11-15T19:06:39;8.70;99.90
13320;DHT22;59599;47.608;12.190;2022-11-15T19:09:06;8.90;99.90
13320;DHT22;59599;47.608;12.190;2022-11-15T19:11:34;8.90;99.90
13320;DHT22;59599;47.608;12.190;2022-11-15T19:14:03;8.80;99.90
13320;DHT22;59599;47.608;12.190;2022-11-15T19:16:31;8.80;99.90
13320;DHT22;59599;47.608;12.190;2022-11-15T19:18:59;8.80;99.90
13320;DHT22;59599;47.608;12.190;2022-11-15T19:21:26;8.80;99.90
13320;DHT22;59599;47.608;12.190;2022-11-15T19:23:52;8.70;99.90
13320;DHT22;59599;47.608;12.190;2022-11-15T19:26:19;8.60;99.90
13320;DHT22;59599;47.608;12.190;2022-11-15T19:28:53;8.60;99.90
13320;DHT22;59599;47.608;12.190;2022-11-15T19:31:20;8.70;99.90
13320;DHT22;59599;47.608;12.190;2022-11-15T19:33:46;8.80;99.90
13320;DHT22;59599;47.608;12.190;2022-11-15T19:36:13;8.70;99.90
13320;DHT22;59599;47.608;12.190;2022-11-15T19:38:40;8.70;99.90
13320;DHT22;59599;47.608;12.190;2022-11-15T19:41:09;8.60;99.90
13320;DHT22;59599;47.608;12.190;2022-11-15T19:43:35;8.70;99.90
13320;DHT22;59599;47.608;12.190;2022-11-15T19:46:03;8.60;99.90
13320;DHT22;59599;47.608;12.190;2022-11-15T19:48:31;8.60;99.90
13320;DHT22;59599;47.608;12.190;2022-11-15T19:51:01;8.60;99.90
13320;DHT22;59599;47.608;12.190;2022-11-15T19:53:27;8.50;99.90
13320;DHT22;59599;47.608;12.190;2022-11-15T19:56:13;8.40;99.90
13320;DHT22;59599;47.608;12.190;2022-11-15T19:58:39;8.30;99.90
13320;DHT22;59599;47.608;12.190;2022-11-15T20:03:38;8.40;99.90
13320;DHT22;59599;47.608;12.190;2022-11-15T20:06:15;8.40;99.90
13320;DHT22;59599;47.608;12.190;2022-11-15T20:08:42;8.40;99.90
13320;DHT22;59599;47.608;12.190;2022-11-15T20:11:07;8.30;99.90
13320;DHT22;59599;47.608;12.190;2022-11-15T20:13:33;8.30;99.90
13320;DHT22;59599;47.608;12.190;2022-11-15T20:15:59;8.30;99.90
13320;DHT22;59599;47.608;12.190;2022-11-15T20:18:26;8.10;99.90
13320;DHT22;59599;47.608;12.190;2022-11-15T20:20:51;8.00;99.90
13320;DHT22;59599;47.608;12.190;2022-11-15T20:23:17;8.00;99.90
13320;DHT22;59599;47.608;12.190;2022-11-15T20:25:46;8.00;99.90
13320;DHT22;59599;47.608;12.190;2022-11-15T20:28:20;7.90;99.90
13320;DHT22;59599;47.608;12.190;2022-11-15T20:30:47;8.00;99.90
13320;DHT22;59599;47.608;12.190;2022-11-15T20:33:15;8.20;99.90
13320;DHT22;59599;47.608;12.190;2022-11-15T20:35:42;8.20;99.90
13320;DHT22;59599;47.608;12.190;2022-11-15T20:38:09;8.20;99.90
13320;DHT22;59599;47.608;12.190;2022-11-15T20:40:35;8.20;99.90
13320;DHT22;59599;47.608;12.190;2022-11-15T20:43:01;8.20;99.90
13320;DHT22;59599;47.608;12.190;2022-11-15T20:45:27;8.00;99.90
13320;DHT22;59599;47.608;12.190;2022-11-15T20:47:57;7.90;99.90
13320;DHT22;59599;47.608;12.190;2022-11-15T20:50:24;7.80;99.90
13320;DHT22;59599;47.608;12.190;2022-11-15T20:52:49;7.70;99.90
13320;DHT22;59599;47.608;12.190;2022-11-15T20:55:15;7.60;99.90
13320;DHT22;59599;47.608;12.190;2022-11-15T20:57:41;7.40;99.90
13320;DHT22;59599;47.608;12.190;2022-11-15T21:00:07;7.40;99.90
13320;DHT22;59599;47.608;12.190;2022-11-15T21:02:33;7.40;99.90
13320;DHT22;59599;47.608;12.190;2022-11-15T21:04:58;7.30;99.90
13320;DHT22;59599;47.608;12.190;2022-11-15T21:07:24;7.30;99.90
13320;DHT22;59599;47.608;12.190;2022-11-15T21:09:49;7.30;99.90
13320;DHT22;59599;47.608;12.190;2022-11-15T21:12:33;7.40;99.90
13320;DHT22;59599;47.608;12.190;2022-11-15T21:14:59;7.60;99.90
13320;DHT22;59599;47.608;12.190;2022-11-15T21:17:24;7.60;99.90
13320;DHT22;59599;47.608;12.190;2022-11-15T21:19:50;7.60;99.90
13320;DHT22;59599;47.608;12.190;2022-11-15T21:22:15;7.50;99.90
13320;DHT22;59599;47.608;12.190;2022-11-15T21:24:41;7.50;99.90
13320;DHT22;59599;47.608;12.190;2022-11-15T21:27:08;7.50;99.90
13320;DHT22;59599;47.608;12.190;2022-11-15T21:29:34;7.50;99.90
13320;DHT22;59599;47.608;12.190;2022-11-15T21:32:04;7.60;99.90
13320;DHT22;59599;47.608;12.190;2022-11-15T21:34:30;7.60;99.90
13320;DHT22;59599;47.608;12.190;2022-11-15T21:36:56;7.60;99.90
13320;DHT22;59599;47.608;12.190;2022-11-15T21:39:21;7.60;99.90
13320;DHT22;59599;47.608;12.190;2022-11-15T21:41:47;7.60;99.90
13320;DHT22;59599;47.608;12.190;2022-11-15T21:44:12;7.70;99.90
13320;DHT22;59599;47.608;12.190;2022-11-15T21:46:38;7.80;99.90
13320;DHT22;59599;47.608;12.190;2022-11-15T21:49:04;7.80;99.90
13320;DHT22;59599;47.608;12.190;2022-11-15T21:51:30;7.80;99.90
13320;DHT22;59599;47.608;12.190;2022-11-15T21:53:56;7.70;99.90
13320;DHT22;59599;47.608;12.190;2022-11-15T21:56:23;7.70;99.90
13320;DHT22;59599;47.608;12.190;2022-11-15T21:58:50;7.70;99.90
13320;DHT22;59599;47.608;12.190;2022-11-15T22:01:16;7.70;99.90
13320;DHT22;59599;47.608;12.190;2022-11-15T22:04:00;7.70;99.90
13320;DHT22;59599;47.608;12.190;2022-11-15T22:06:26;7.70;99.90
13320;DHT22;59599;47.608;12.190;2022-11-15T22:08:51;7.80;99.90
13320;DHT22;59599;47.608;12.190;2022-11-15T22:11:17;7.70;99.90
13320;DHT22;59599;47.608;12.190;2022-11-15T22:13:42;7.70;99.90
13320;DHT22;59599;47.608;12.190;2022-11-15T22:16:09;7.80;99.90
13320;DHT22;59599;47.608;12.190;2022-11-15T22:18:35;7.90;99.90
13320;DHT22;59599;47.608;12.190;2022-11-15T22:21:03;7.80;99.90